createdAt,value
2023-10-31T00:00:25.525Z,0.30
2023-10-31T00:02:53.822Z,0.15
2023-10-31T00:05:22.250Z,0.40
2023-10-31T00:07:50.508Z,0.03
2023-10-31T00:10:18.827Z,0.30
2023-10-31T00:12:47.046Z,0.17
2023-10-31T00:15:15.450Z,0.28
2023-10-31T00:17:44.090Z,0.50
2023-10-31T00:20:12.482Z,0.30
2023-10-31T00:22:40.725Z,0.30
2023-10-31T00:25:09.081Z,0.40
2023-10-31T00:27:37.252Z,0.22
2023-10-31T00:30:06.050Z,0.43
2023-10-31T00:32:34.293Z,0.30
2023-10-31T00:35:02.930Z,0.50
2023-10-31T00:37:31.543Z,1.27
2023-10-31T00:39:59.717Z,0.45
2023-10-31T00:42:28.184Z,0.80
2023-10-31T00:44:56.409Z,1.13
2023-10-31T00:47:24.659Z,1.65
2023-10-31T00:49:54.408Z,1.20
2023-10-31T00:52:22.649Z,1.20
2023-10-31T00:54:51.073Z,1.48
2023-10-31T00:57:19.275Z,1.92
2023-10-31T00:59:47.476Z,2.22
2023-10-31T01:02:15.757Z,1.77
2023-10-31T01:04:44.076Z,1.70
2023-10-31T01:07:13.610Z,1.17
2023-10-31T01:09:41.856Z,1.52
2023-10-31T01:12:11.556Z,1.48
2023-10-31T01:14:39.830Z,1.70
2023-10-31T01:17:08.420Z,1.63
2023-10-31T01:19:36.811Z,1.50
2023-10-31T01:22:05.244Z,2.00
2023-10-31T01:24:33.540Z,1.95
2023-10-31T01:27:01.771Z,2.03
2023-10-31T01:29:29.981Z,1.92
2023-10-31T01:32:01.318Z,1.95
2023-10-31T01:34:31.729Z,2.10
2023-10-31T01:36:59.954Z,2.35
2023-10-31T01:41:56.854Z,2.05
2023-10-31T01:44:26.033Z,1.08
2023-10-31T01:46:54.277Z,1.92
2023-10-31T01:51:51.570Z,1.30
2023-10-31T01:54:19.871Z,1.17
2023-10-31T01:56:52.080Z,1.70
2023-10-31T01:59:20.336Z,1.55
2023-10-31T02:01:48.938Z,1.90
2023-10-31T02:04:17.189Z,2.13
2023-10-31T02:06:45.434Z,1.50
2023-10-31T02:09:13.662Z,2.08
2023-10-31T02:11:41.844Z,2.00
2023-10-31T02:14:10.076Z,2.35
2023-10-31T02:16:38.324Z,2.03
2023-10-31T02:21:35.565Z,2.40
2023-10-31T02:24:04.960Z,2.08
2023-10-31T02:26:34.171Z,2.38
2023-10-31T02:29:04.002Z,2.58
2023-10-31T02:31:32.531Z,2.00
2023-10-31T02:34:00.745Z,2.60
2023-10-31T02:36:29.003Z,2.75
2023-10-31T02:38:57.190Z,2.05
2023-10-31T02:41:25.366Z,2.47
2023-10-31T02:43:56.484Z,2.00
2023-10-31T02:46:24.861Z,2.85
2023-10-31T02:48:53.122Z,2.03
2023-10-31T02:53:49.873Z,1.88
2023-10-31T02:56:18.140Z,2.10
2023-10-31T02:58:47.021Z,2.20
2023-10-31T03:01:15.335Z,1.65
2023-10-31T03:03:43.663Z,1.83
2023-10-31T03:06:11.886Z,1.75
2023-10-31T03:08:40.089Z,1.35
2023-10-31T03:11:09.280Z,1.38
2023-10-31T03:13:37.529Z,1.55
2023-10-31T03:16:05.763Z,1.02
2023-10-31T03:18:33.944Z,1.25
2023-10-31T03:21:02.409Z,1.05
2023-10-31T03:23:30.586Z,1.25
2023-10-31T03:25:58.919Z,1.23
2023-10-31T03:28:27.144Z,1.17
2023-10-31T03:30:55.439Z,0.95
2023-10-31T03:33:25.228Z,1.33
2023-10-31T03:35:53.429Z,1.10
2023-10-31T03:38:21.701Z,1.10
2023-10-31T03:40:49.974Z,1.50
2023-10-31T03:43:18.180Z,0.80
2023-10-31T03:45:47.373Z,0.70
2023-10-31T03:48:16.037Z,0.52
2023-10-31T03:50:44.651Z,0.73
2023-10-31T03:53:12.846Z,0.82
2023-10-31T03:55:41.110Z,0.40
2023-10-31T03:58:09.355Z,0.60
2023-10-31T04:00:37.641Z,0.68
2023-10-31T04:03:05.929Z,0.40
2023-10-31T04:05:34.140Z,0.40
2023-10-31T04:08:02.590Z,0.30
2023-10-31T04:10:30.785Z,0.22
2023-10-31T04:12:58.996Z,0.63
2023-10-31T04:15:27.163Z,0.10
2023-10-31T04:17:55.439Z,0.10
2023-10-31T04:20:23.792Z,0.28
2023-10-31T04:22:52.096Z,0.20
2023-10-31T04:25:20.423Z,0.15
2023-10-31T04:27:48.603Z,0.30
2023-10-31T04:30:17.377Z,0.10
2023-10-31T04:32:45.715Z,0.20
2023-10-31T04:35:14.047Z,0.10
2023-10-31T04:37:42.356Z,0.35
2023-10-31T04:40:11.593Z,0.30
2023-10-31T04:42:42.067Z,0.38
2023-10-31T04:45:10.784Z,0.10
2023-10-31T04:47:39.111Z,0.30
2023-10-31T04:50:07.665Z,0.10
2023-10-31T04:52:35.921Z,0.22
2023-10-31T04:55:04.438Z,0.20
2023-10-31T04:57:32.974Z,0.30
2023-10-31T05:00:01.273Z,0.13
2023-10-31T05:02:30.020Z,0.20
2023-10-31T05:04:59.428Z,0.22
2023-10-31T05:07:27.681Z,0.08
2023-10-31T05:09:55.841Z,0.57
2023-10-31T05:12:23.993Z,0.60
2023-10-31T05:14:52.199Z,0.50
2023-10-31T05:17:21.110Z,0.30
2023-10-31T05:19:50.398Z,0.20
2023-10-31T05:22:18.602Z,0.20
2023-10-31T05:24:46.805Z,1.15
2023-10-31T05:27:15.065Z,0.10
2023-10-31T05:29:43.401Z,0.30
2023-10-31T05:32:11.621Z,0.65
2023-10-31T05:34:39.858Z,0.13
2023-10-31T05:37:08.149Z,0.30
2023-10-31T05:39:38.082Z,0.30
2023-10-31T05:42:06.299Z,0.30
2023-10-31T05:44:34.489Z,0.17
2023-10-31T05:47:02.747Z,0.30
2023-10-31T05:49:31.507Z,0.13
2023-10-31T05:51:59.774Z,0.47
2023-10-31T05:54:27.987Z,0.38
2023-10-31T05:56:56.203Z,0.22
2023-10-31T05:59:24.439Z,0.20
2023-10-31T06:01:52.744Z,0.30
2023-10-31T06:04:21.020Z,0.55
2023-10-31T06:06:49.184Z,0.38
2023-10-31T06:09:17.428Z,0.60
2023-10-31T06:11:45.989Z,0.50
2023-10-31T06:14:14.302Z,0.57
2023-10-31T06:16:43.551Z,0.50
2023-10-31T06:19:12.455Z,1.17
2023-10-31T06:21:41.217Z,0.93
2023-10-31T06:24:09.808Z,1.10
2023-10-31T06:26:38.093Z,0.93
2023-10-31T06:29:27.389Z,1.45
2023-10-31T06:31:54.536Z,0.90
2023-10-31T06:34:22.829Z,1.25
2023-10-31T06:36:51.124Z,1.17
2023-10-31T06:39:19.452Z,1.25
2023-10-31T06:41:47.624Z,1.10
2023-10-31T06:44:15.849Z,0.80
2023-10-31T06:46:44.205Z,1.58
2023-10-31T06:49:12.469Z,1.08
2023-10-31T06:51:40.768Z,1.50
2023-10-31T06:54:09.077Z,0.70
2023-10-31T06:56:37.326Z,1.27
2023-10-31T06:59:06.706Z,0.95
2023-10-31T07:01:35.003Z,0.55
2023-10-31T07:04:03.279Z,0.90
2023-10-31T07:06:31.488Z,0.98
2023-10-31T07:09:01.647Z,0.40
2023-10-31T07:11:33.504Z,0.50
2023-10-31T07:14:03.747Z,0.50
2023-10-31T07:16:34.767Z,0.35
2023-10-31T07:19:02.966Z,0.38
2023-10-31T07:21:31.194Z,0.82
2023-10-31T07:23:59.427Z,0.40
2023-10-31T07:26:28.802Z,0.50
2023-10-31T07:28:57.164Z,0.10
2023-10-31T07:31:25.361Z,0.20
2023-10-31T07:33:53.618Z,0.10
2023-10-31T07:36:21.830Z,0.20
2023-10-31T07:38:50.229Z,0.30
2023-10-31T07:41:18.534Z,0.30
2023-10-31T07:43:46.782Z,0.22
2023-10-31T07:46:15.065Z,0.17
2023-10-31T07:48:43.345Z,0.35
2023-10-31T07:51:11.568Z,0.30
2023-10-31T07:53:39.748Z,0.10
2023-10-31T07:56:17.194Z,0.68
2023-10-31T07:58:45.474Z,0.50
2023-10-31T08:01:13.987Z,0.47
2023-10-31T08:03:42.284Z,0.80
2023-10-31T08:06:10.464Z,0.32
2023-10-31T08:08:38.627Z,0.77
2023-10-31T08:11:10.845Z,0.82
2023-10-31T08:13:39.709Z,0.32
2023-10-31T08:16:08.972Z,0.57
2023-10-31T08:18:37.691Z,0.65
2023-10-31T08:21:06.185Z,0.40
2023-10-31T08:23:35.098Z,0.70
2023-10-31T08:26:03.367Z,0.47
2023-10-31T08:28:32.037Z,0.98
2023-10-31T08:31:00.327Z,0.60
2023-10-31T08:33:28.645Z,0.52
2023-10-31T08:35:56.937Z,1.08
2023-10-31T08:38:29.753Z,0.63
2023-10-31T08:41:01.059Z,0.77
2023-10-31T08:45:57.107Z,0.98
2023-10-31T08:48:26.059Z,0.95
2023-10-31T08:50:54.321Z,1.00
2023-10-31T08:53:22.624Z,0.90
2023-10-31T08:55:50.890Z,1.10
2023-10-31T08:58:19.640Z,0.88
2023-10-31T09:00:47.955Z,0.88
2023-10-31T09:03:16.326Z,0.80
2023-10-31T09:05:45.391Z,0.63
2023-10-31T09:10:43.893Z,0.70
2023-10-31T09:13:12.267Z,0.70
2023-10-31T09:15:40.657Z,1.00
2023-10-31T09:18:09.089Z,1.02
2023-10-31T09:20:37.400Z,0.90
2023-10-31T09:23:06.172Z,0.68
2023-10-31T09:25:34.388Z,1.02
2023-10-31T09:28:02.958Z,0.60
2023-10-31T09:30:31.201Z,0.50
2023-10-31T09:33:00.201Z,1.17
2023-10-31T09:35:28.686Z,1.20
2023-10-31T09:37:57.749Z,1.13
2023-10-31T09:40:25.984Z,1.10
2023-10-31T09:42:54.221Z,0.88
2023-10-31T09:45:22.528Z,1.17
2023-10-31T09:47:50.792Z,1.00
2023-10-31T09:50:19.124Z,1.20
2023-10-31T09:52:48.353Z,1.10
2023-10-31T09:55:17.244Z,0.73
2023-10-31T10:00:14.065Z,0.95
2023-10-31T10:02:42.754Z,1.13
2023-10-31T10:05:12.983Z,1.00
2023-10-31T10:07:45.152Z,1.20
2023-10-31T10:10:14.350Z,1.10
2023-10-31T10:12:45.845Z,1.38
2023-10-31T10:15:14.101Z,1.00
2023-10-31T10:17:51.510Z,0.80
2023-10-31T10:20:20.011Z,0.90
2023-10-31T10:22:48.508Z,1.05
2023-10-31T10:25:20.078Z,0.93
2023-10-31T10:27:48.920Z,1.17
2023-10-31T10:30:18.076Z,0.80
2023-10-31T10:32:46.361Z,0.70
2023-10-31T10:35:16.592Z,1.15
2023-10-31T10:37:48.008Z,1.00
2023-10-31T10:40:18.128Z,1.48
2023-10-31T10:42:52.326Z,0.90
2023-10-31T10:45:22.163Z,1.02
2023-10-31T10:47:52.808Z,0.88
2023-10-31T10:50:23.255Z,1.10
2023-10-31T10:53:02.333Z,1.02
2023-10-31T10:55:36.279Z,1.10
2023-10-31T10:58:13.680Z,1.10
2023-10-31T11:00:42.893Z,1.00
2023-10-31T11:03:12.112Z,1.00
2023-10-31T11:05:40.508Z,0.95
2023-10-31T11:08:09.429Z,1.08
2023-10-31T11:10:38.251Z,1.20
2023-10-31T11:13:06.481Z,1.10
2023-10-31T11:15:35.263Z,1.23
2023-10-31T11:18:04.650Z,0.98
2023-10-31T11:20:33.439Z,1.05
2023-10-31T11:23:07.737Z,0.80
2023-10-31T11:28:14.315Z,1.05
2023-10-31T11:30:44.559Z,1.00
2023-10-31T11:33:17.235Z,1.08
2023-10-31T11:35:48.413Z,0.80
2023-10-31T11:38:16.693Z,0.70
2023-10-31T11:40:50.965Z,0.70
2023-10-31T11:43:19.205Z,0.90
2023-10-31T11:45:49.283Z,1.08
2023-10-31T11:48:18.107Z,0.75
2023-10-31T11:53:18.003Z,1.40
2023-10-31T11:55:48.439Z,0.98
2023-10-31T11:58:27.031Z,1.55
2023-10-31T12:01:04.602Z,1.35
2023-10-31T12:03:43.503Z,1.83
2023-10-31T12:06:12.530Z,1.20
2023-10-31T12:08:43.029Z,1.42
2023-10-31T12:11:17.376Z,1.65
2023-10-31T12:14:03.184Z,2.10
2023-10-31T12:16:33.165Z,2.10
2023-10-31T12:19:06.688Z,2.47
2023-10-31T12:21:49.179Z,2.33
2023-10-31T12:24:19.951Z,3.03
2023-10-31T12:26:48.573Z,4.30
2023-10-31T12:29:21.279Z,4.50
2023-10-31T12:31:53.506Z,4.55
2023-10-31T12:34:24.443Z,5.13
2023-10-31T12:36:54.732Z,5.38
2023-10-31T12:39:28.048Z,5.45
2023-10-31T12:41:58.209Z,5.32
2023-10-31T12:44:29.250Z,6.05
2023-10-31T12:46:58.268Z,6.10
2023-10-31T12:49:27.730Z,6.43
2023-10-31T12:52:06.375Z,6.30
2023-10-31T12:54:37.364Z,5.57
2023-10-31T12:57:09.524Z,5.78
2023-10-31T12:59:40.571Z,5.82
2023-10-31T13:02:09.929Z,5.18
2023-10-31T13:04:38.682Z,6.88
2023-10-31T13:07:09.384Z,5.80
2023-10-31T13:09:43.877Z,5.55
2023-10-31T13:12:12.686Z,5.60
2023-10-31T13:14:41.395Z,6.20
2023-10-31T13:17:09.695Z,6.15
2023-10-31T13:19:37.945Z,5.53
2023-10-31T13:22:06.185Z,5.90
2023-10-31T13:24:34.582Z,6.10
2023-10-31T13:27:04.266Z,6.22
2023-10-31T13:29:32.546Z,6.10
2023-10-31T13:32:00.878Z,5.47
2023-10-31T13:34:33.012Z,4.88
2023-10-31T13:37:01.421Z,5.85
2023-10-31T13:39:29.662Z,5.00
2023-10-31T13:41:58.017Z,6.05
2023-10-31T13:44:26.274Z,5.22
2023-10-31T13:46:54.553Z,4.85
2023-10-31T13:49:22.867Z,5.65
2023-10-31T13:51:51.120Z,5.25
2023-10-31T13:54:20.506Z,5.25
2023-10-31T13:56:49.248Z,5.30
2023-10-31T13:59:19.449Z,5.35
2023-10-31T14:01:48.776Z,5.40
2023-10-31T14:04:17.450Z,5.43
2023-10-31T14:06:45.812Z,4.45
2023-10-31T14:09:14.179Z,4.10
2023-10-31T14:11:43.121Z,5.10
2023-10-31T14:16:40.478Z,3.95
2023-10-31T14:19:09.603Z,4.40
2023-10-31T14:21:38.163Z,4.03
2023-10-31T14:24:11.174Z,5.30
2023-10-31T14:26:44.565Z,4.90
2023-10-31T14:29:13.439Z,3.85
2023-10-31T14:31:45.362Z,4.18
2023-10-31T14:34:13.627Z,4.80
2023-10-31T14:36:42.072Z,4.13
2023-10-31T14:39:13.091Z,4.63
2023-10-31T14:41:41.909Z,4.65
2023-10-31T14:44:10.268Z,5.20
2023-10-31T14:46:38.801Z,5.05
2023-10-31T14:49:07.112Z,5.60
2023-10-31T14:51:35.370Z,5.15
2023-10-31T14:54:03.749Z,5.35
2023-10-31T14:56:32.885Z,5.43
2023-10-31T14:59:01.180Z,4.68
2023-10-31T15:01:29.645Z,5.85
2023-10-31T15:03:58.087Z,5.50
2023-10-31T15:06:26.546Z,4.07
2023-10-31T15:08:54.798Z,6.20
2023-10-31T15:11:24.422Z,5.07
2023-10-31T15:13:52.761Z,5.60
2023-10-31T15:16:21.008Z,4.88
2023-10-31T15:18:49.389Z,4.60
2023-10-31T15:21:17.679Z,4.55
2023-10-31T15:23:45.874Z,4.90
2023-10-31T15:26:14.831Z,4.30
2023-10-31T15:28:44.115Z,3.92
2023-10-31T15:31:13.017Z,3.58
2023-10-31T15:36:13.833Z,3.90
2023-10-31T15:38:42.641Z,3.97
2023-10-31T15:41:17.022Z,3.67
2023-10-31T15:43:47.306Z,3.88
2023-10-31T15:46:15.783Z,3.50
2023-10-31T15:48:44.119Z,4.30
2023-10-31T15:51:12.553Z,3.92
2023-10-31T15:53:40.876Z,3.63
2023-10-31T15:56:11.231Z,3.85
2023-10-31T15:58:39.959Z,4.40
2023-10-31T16:01:08.364Z,3.70
2023-10-31T16:03:36.860Z,3.92
2023-10-31T16:06:05.791Z,3.00
2023-10-31T16:08:34.199Z,3.05
2023-10-31T16:11:02.454Z,3.22
2023-10-31T16:13:30.688Z,3.30
2023-10-31T16:15:59.059Z,3.30
2023-10-31T16:18:27.420Z,3.25
2023-10-31T16:20:55.651Z,2.78
2023-10-31T16:23:24.870Z,3.42
2023-10-31T16:25:53.099Z,3.20
2023-10-31T16:28:21.284Z,3.42
2023-10-31T16:30:49.550Z,3.70
2023-10-31T16:33:18.039Z,3.13
2023-10-31T16:35:46.390Z,3.20
2023-10-31T16:38:14.695Z,3.22
2023-10-31T16:40:42.881Z,3.20
2023-10-31T16:43:11.057Z,2.85
2023-10-31T16:45:39.238Z,2.85
2023-10-31T16:48:07.730Z,2.55
2023-10-31T16:50:36.014Z,2.70
2023-10-31T16:53:07.508Z,2.58
2023-10-31T16:55:35.837Z,2.70
2023-10-31T16:58:05.946Z,2.65
2023-10-31T17:00:34.156Z,2.38
2023-10-31T17:03:02.928Z,2.58
2023-10-31T17:05:31.277Z,2.67
2023-10-31T17:07:59.568Z,2.67
2023-10-31T17:10:27.778Z,3.22
2023-10-31T17:13:01.760Z,3.08
2023-10-31T17:15:29.937Z,2.45
2023-10-31T17:17:58.392Z,2.75
2023-10-31T17:20:27.231Z,2.15
2023-10-31T17:25:23.511Z,2.20
2023-10-31T17:27:51.781Z,2.30
2023-10-31T17:30:20.074Z,3.78
2023-10-31T17:32:48.427Z,2.53
2023-10-31T17:35:18.039Z,2.38
2023-10-31T17:37:47.009Z,3.40
2023-10-31T17:40:15.410Z,3.30
2023-10-31T17:42:43.575Z,3.15
2023-10-31T17:45:12.881Z,2.85
2023-10-31T17:47:41.236Z,2.80
2023-10-31T17:50:10.658Z,2.78
2023-10-31T17:52:39.174Z,2.55
2023-10-31T17:55:07.570Z,2.40
2023-10-31T17:57:36.868Z,2.72
2023-10-31T18:00:05.545Z,2.83
2023-10-31T18:02:40.365Z,2.80
2023-10-31T18:05:10.291Z,3.47
2023-10-31T18:07:39.461Z,3.20
2023-10-31T18:10:08.152Z,3.13
2023-10-31T18:12:36.888Z,2.72
2023-10-31T18:15:05.506Z,2.72
2023-10-31T18:17:34.689Z,3.55
2023-10-31T18:20:03.125Z,2.97
2023-10-31T18:22:31.301Z,3.90
2023-10-31T18:24:59.512Z,3.78
2023-10-31T18:27:27.754Z,3.78
2023-10-31T18:29:56.692Z,4.60
2023-10-31T18:34:53.351Z,3.83
2023-10-31T18:37:21.596Z,4.80
2023-10-31T18:39:49.835Z,5.22
2023-10-31T18:42:19.430Z,4.10
2023-10-31T18:44:52.520Z,4.60
2023-10-31T18:47:24.882Z,4.18
2023-10-31T18:49:53.283Z,3.95
2023-10-31T18:52:21.532Z,4.55
2023-10-31T18:54:49.727Z,3.90
2023-10-31T18:57:17.970Z,3.88
2023-10-31T18:59:46.270Z,3.72
2023-10-31T19:02:15.532Z,4.88
2023-10-31T19:04:44.016Z,5.63
2023-10-31T19:07:12.413Z,5.32
2023-10-31T19:09:40.655Z,4.55
2023-10-31T19:12:09.272Z,4.47
2023-10-31T19:14:37.556Z,4.95
2023-10-31T19:17:05.914Z,5.22
2023-10-31T19:19:34.141Z,4.43
2023-10-31T19:22:02.540Z,4.70
2023-10-31T19:24:30.774Z,4.72
2023-10-31T19:26:59.024Z,3.83
2023-10-31T19:29:27.584Z,4.57
2023-10-31T19:31:55.874Z,6.05
2023-10-31T19:34:24.200Z,5.75
2023-10-31T19:36:52.521Z,4.47
2023-10-31T19:39:22.476Z,7.85
2023-10-31T19:41:50.747Z,5.80
2023-10-31T19:44:19.425Z,5.93
2023-10-31T19:46:49.834Z,5.20
2023-10-31T19:49:18.164Z,5.35
2023-10-31T19:51:46.377Z,5.05
2023-10-31T19:54:14.607Z,5.43
2023-10-31T19:56:45.973Z,5.43
2023-10-31T19:59:15.847Z,5.38
2023-10-31T20:01:44.197Z,4.65
2023-10-31T20:04:12.862Z,5.20
2023-10-31T20:06:42.788Z,5.30
2023-10-31T20:09:10.975Z,4.80
2023-10-31T20:11:39.309Z,4.88
2023-10-31T20:14:07.695Z,4.05
2023-10-31T20:16:35.976Z,4.30
2023-10-31T20:19:06.254Z,5.07
2023-10-31T20:21:34.512Z,6.93
2023-10-31T20:24:03.478Z,4.20
2023-10-31T20:28:59.763Z,3.63
2023-10-31T20:31:27.937Z,3.13
2023-10-31T20:33:56.347Z,3.85
2023-10-31T20:36:24.665Z,3.50
2023-10-31T20:38:52.864Z,4.30
2023-10-31T20:41:22.515Z,3.63
2023-10-31T20:43:50.813Z,3.97
2023-10-31T20:46:19.079Z,3.30
2023-10-31T20:48:47.359Z,3.08
2023-10-31T20:51:15.593Z,3.15
2023-10-31T20:53:44.076Z,2.83
2023-10-31T20:56:12.333Z,2.58
2023-10-31T20:58:40.594Z,3.10
2023-10-31T21:01:10.041Z,2.88
2023-10-31T21:03:38.493Z,2.55
2023-10-31T21:06:07.029Z,3.38
2023-10-31T21:08:35.374Z,2.90
2023-10-31T21:11:03.750Z,2.72
2023-10-31T21:13:32.073Z,1.50
2023-10-31T21:16:00.683Z,2.35
2023-10-31T21:18:29.010Z,1.88
2023-10-31T21:20:57.211Z,1.88
2023-10-31T21:23:25.514Z,1.80
2023-10-31T21:25:55.637Z,1.85
2023-10-31T21:28:23.850Z,1.08
2023-10-31T21:30:54.099Z,1.00
2023-10-31T21:33:24.703Z,0.65
2023-10-31T21:35:54.165Z,0.63
2023-10-31T21:38:22.433Z,0.85
2023-10-31T21:40:50.722Z,0.93
2023-10-31T21:43:18.965Z,0.63
2023-10-31T21:45:47.270Z,0.90
2023-10-31T21:48:15.566Z,0.95
2023-10-31T21:50:43.830Z,1.17
2023-10-31T21:53:12.081Z,1.42
2023-10-31T21:55:40.452Z,2.58
2023-10-31T21:58:08.704Z,1.30
2023-10-31T22:00:36.967Z,0.63
2023-10-31T22:03:05.463Z,2.25
2023-10-31T22:05:34.018Z,1.35
2023-10-31T22:08:02.231Z,0.80
2023-10-31T22:10:30.482Z,1.38
2023-10-31T22:12:58.659Z,1.90
2023-10-31T22:15:26.844Z,1.35
2023-10-31T22:17:55.041Z,0.93
2023-10-31T22:20:23.239Z,1.65
2023-10-31T22:22:51.735Z,0.75
2023-10-31T22:25:20.005Z,1.25
2023-10-31T22:27:48.947Z,1.40
2023-10-31T22:30:17.897Z,1.60
2023-10-31T22:35:14.130Z,2.33
2023-10-31T22:37:42.324Z,3.22
2023-10-31T22:40:11.008Z,3.78
2023-10-31T22:42:39.193Z,3.22
2023-10-31T22:45:08.068Z,2.92
2023-10-31T22:47:40.498Z,2.70
2023-10-31T22:50:11.756Z,3.20
2023-10-31T22:52:40.047Z,3.75
2023-10-31T22:55:09.355Z,4.05
2023-10-31T22:57:37.618Z,3.38
2023-10-31T23:00:11.637Z,3.17
2023-10-31T23:02:41.353Z,3.33
2023-10-31T23:05:12.031Z,3.67
2023-10-31T23:07:40.514Z,3.75
2023-10-31T23:10:08.986Z,2.72
2023-10-31T23:12:37.303Z,2.83
2023-10-31T23:15:12.426Z,3.20
2023-10-31T23:17:42.571Z,2.78
2023-10-31T23:20:12.915Z,3.35
2023-10-31T23:22:42.947Z,3.17
2023-10-31T23:25:11.941Z,3.30
2023-10-31T23:30:11.684Z,3.42
2023-10-31T23:32:40.060Z,5.05
2023-10-31T23:35:08.803Z,3.97
2023-10-31T23:37:37.182Z,4.38
2023-10-31T23:40:06.201Z,5.13
2023-10-31T23:45:02.325Z,2.90
2023-10-31T23:47:31.018Z,3.47
2023-10-31T23:49:59.691Z,3.42
2023-10-31T23:52:29.045Z,3.10
2023-10-31T23:54:57.363Z,3.22
2023-10-31T23:57:25.589Z,3.75
2023-10-31T23:59:53.827Z,3.15
